Time;durP1;ratioP1;P1;durP2;ratioP2;P2;SDS_P1;SDS_P2;PMS_P1;PMS_P2;Temp;Humidity;BMP_temperature;BMP_pressure;BME280_temperature;BME280_humidity;BME280_pressure;Samples;Min_cycle;Max_cycle;Signal;HPM_P1;HPM_P2
2021/01/15 00:06:22;;;;;;;10.27;4.97;;;;;;;0.13;83.82;100480.88;20977573;28;20106;-73
2021/01/15 00:16:31;;;;;;;9.43;4.80;;;;;;;0.11;82.21;100475.75;20977576;28;20087;-73
2021/01/15 00:26:34;;;;;;;9.43;4.78;;;;;;;0.13;82.93;100481.75;20981632;28;20133;-73
2021/01/15 00:36:36;;;;;;;10.25;4.55;;;;;;;-0.07;81.63;100497.38;20975771;28;20044;-73
2021/01/15 00:46:45;;;;;;;8.57;4.07;;;;;;;-0.14;82.47;100498.28;20990148;28;20041;-73
2021/01/15 00:56:46;;;;;;;10.02;4.53;;;;;;;-0.11;80.92;100508.56;20993116;28;20041;-73
2021/01/15 01:06:47;;;;;;;7.60;3.85;;;;;;;-0.20;80.74;100510.34;20991983;28;20048;-73
2021/01/15 01:16:48;;;;;;;8.88;4.50;;;;;;;-0.30;80.04;100530.16;20988036;28;20040;-73
2021/01/15 01:26:49;;;;;;;10.07;4.70;;;;;;;-0.40;81.55;100537.94;20990933;28;20041;-72
2021/01/15 01:36:50;;;;;;;9.35;4.55;;;;;;;-0.47;80.46;100542.28;20989261;28;20059;-72
2021/01/15 01:46:54;;;;;;;9.00;4.28;;;;;;;-0.34;79.13;100551.63;20988687;28;20083;-72
2021/01/15 01:56:55;;;;;;;9.47;3.90;;;;;;;-0.41;79.06;100555.13;20985807;28;20048;-72
2021/01/15 02:06:57;;;;;;;11.25;5.40;;;;;;;-0.59;80.37;100565.50;20986674;28;20068;-73
2021/01/15 02:16:59;;;;;;;8.00;3.95;;;;;;;-0.58;78.13;100572.34;20986695;28;20043;-72
2021/01/15 02:27:48;;;;;;;10.13;3.78;;;;;;;-0.60;79.20;100574.06;20986323;28;20495;-73
2021/01/15 02:38:21;;;;;;;10.85;4.32;;;;;;;-0.56;78.83;100573.22;20971220;28;20443;-72
2021/01/15 02:48:29;;;;;;;8.98;3.78;;;;;;;-0.57;77.16;100572.34;20984187;28;20055;-72
2021/01/15 02:58:30;;;;;;;7.38;3.45;;;;;;;-0.65;77.67;100586.09;20983493;28;20048;-72
2021/01/15 03:08:32;;;;;;;7.30;3.60;;;;;;;-0.62;76.21;100598.94;20981897;28;20048;-72
2021/01/15 03:18:34;;;;;;;7.68;3.42;;;;;;;-0.75;77.13;100620.41;20982040;28;20056;-71
2021/01/15 03:28:35;;;;;;;8.00;3.75;;;;;;;-0.91;78.38;100630.75;20982128;28;20102;-72
2021/01/15 03:38:36;;;;;;;9.40;3.80;;;;;;;-1.12;78.81;100651.41;20983272;28;20048;-71
2021/01/15 03:48:37;;;;;;;9.20;4.07;;;;;;;-1.09;78.92;100651.38;20981077;28;20550;-72
2021/01/15 03:58:38;;;;;;;7.95;3.95;;;;;;;-1.27;78.37;100661.72;20979392;28;20048;-71
2021/01/15 04:08:40;;;;;;;10.80;4.13;;;;;;;-1.24;77.86;100671.97;20978513;28;20044;-71
2021/01/15 04:18:45;;;;;;;10.25;4.18;;;;;;;-1.19;76.92;100677.94;20977601;28;20256;-70
2021/01/15 04:28:46;;;;;;;8.88;3.97;;;;;;;-1.15;75.50;100681.34;20977025;28;20040;-70
2021/01/15 04:38:48;;;;;;;9.00;4.03;;;;;;;-1.19;76.10;100703.63;20976134;28;20050;-70
2021/01/15 04:48:51;;;;;;;8.30;4.20;;;;;;;-1.23;75.86;100708.78;20976901;28;20048;-71
2021/01/15 04:58:52;;;;;;;15.00;6.13;;;;;;;-1.21;75.82;100717.31;20976818;28;20056;-71
2021/01/15 05:08:54;;;;;;;9.85;4.57;;;;;;;-1.27;76.87;100727.63;20975341;28;20048;-71
2021/01/15 05:18:55;;;;;;;9.18;4.28;;;;;;;-1.19;76.26;100743.84;20975194;28;20098;-71
2021/01/15 05:28:56;;;;;;;12.57;7.07;;;;;;;-1.35;77.64;100750.72;20981055;28;20044;-72
2021/01/15 05:39:24;;;;;;;10.27;4.85;;;;;;;-1.63;80.63;100766.97;20989225;28;20087;-71
2021/01/15 05:49:25;;;;;;;13.27;4.90;;;;;;;-1.81;83.55;100788.31;20989392;28;20048;-72
2021/01/15 05:59:27;;;;;;;11.57;4.80;;;;;;;-1.90;84.61;100798.56;20988426;28;20052;-72
2021/01/15 06:09:30;;;;;;;12.57;6.13;;;;;;;-1.90;84.82;100822.50;20986744;28;20056;-72
2021/01/15 06:19:53;;;;;;;10.98;5.55;;;;;;;-1.96;84.62;100835.31;20987249;28;20048;-71
2021/01/15 06:29:55;;;;;;;14.98;6.07;;;;;;;-1.85;83.91;100846.47;20986490;28;20508;-72
2021/01/15 06:40:12;;;;;;;13.52;5.65;;;;;;;-1.88;84.65;100861.81;20983373;28;20454;-72
2021/01/15 06:50:17;;;;;;;11.23;5.85;;;;;;;-1.89;84.15;100869.53;20984255;28;20071;-72
2021/01/15 07:00:23;;;;;;;14.85;6.20;;;;;;;-1.97;85.21;100886.59;20982577;28;20040;-72
2021/01/15 07:10:24;;;;;;;13.45;6.55;;;;;;;-2.04;85.05;100890.84;20979263;28;20446;-71
2021/01/15 07:20:33;;;;;;;12.95;5.93;;;;;;;-2.05;85.42;100899.38;20988237;28;20040;-70
2021/01/15 07:30:35;;;;;;;12.48;6.50;;;;;;;-1.99;86.30;100919.94;20987045;28;20492;-71
2021/01/15 07:40:37;;;;;;;13.25;5.70;;;;;;;-1.88;85.27;100938.78;20968530;28;20102;-70
2021/01/15 07:50:42;;;;;;;13.90;6.35;;;;;;;-1.92;86.12;100955.00;20983840;28;20098;-72
2021/01/15 08:00:44;;;;;;;14.95;6.93;;;;;;;-1.64;84.58;100958.56;20982133;28;20122;-72
2021/01/15 08:10:50;;;;;;;14.07;6.63;;;;;;;-1.65;84.98;100987.66;20984268;28;20480;-72
2021/01/15 08:20:54;;;;;;;;;;;;;;;-1.58;83.97;101004.81;20979784;28;20055;-72
2021/01/15 08:30:57;;;;;;;14.45;6.68;;;;;;;-1.58;84.23;101022.78;20981092;28;20280;-72
2021/01/15 08:40:59;;;;;;;18.20;6.90;;;;;;;-1.41;83.33;101043.34;20980510;28;20119;-72
2021/01/15 08:51:11;;;;;;;16.70;7.80;;;;;;;-1.41;83.61;101048.50;20981968;28;20045;-72
2021/01/15 09:01:25;;;;;;;13.35;7.32;;;;;;;-1.31;82.84;101060.53;20977820;28;20483;-71
2021/01/15 09:11:29;;;;;;;13.95;6.80;;;;;;;-1.18;82.72;101080.28;20991616;28;20096;-70
2021/01/15 09:21:30;;;;;;;13.93;7.22;;;;;;;-0.94;81.84;101082.94;20994390;28;20646;-70
2021/01/15 09:31:31;;;;;;;16.38;7.60;;;;;;;-0.67;81.78;101104.44;20993217;28;20102;-70
2021/01/15 09:41:32;;;;;;;12.93;6.88;;;;;;;-0.46;78.54;101117.34;20993006;28;20496;-72
2021/01/15 09:51:34;;;;;;;12.45;6.90;;;;;;;-0.23;78.15;101131.09;20992706;28;20202;-71
2021/01/15 10:01:35;;;;;;;14.93;7.50;;;;;;;0.04;77.52;101131.97;20991448;28;20036;-71
2021/01/15 10:11:41;;;;;;;15.02;7.03;;;;;;;0.07;76.53;101147.41;20991056;28;20068;-70
2021/01/15 10:21:43;;;;;;;14.40;7.43;;;;;;;0.14;75.43;101136.25;20989829;28;20476;-70
2021/01/15 10:31:54;;;;;;;16.05;7.35;;;;;;;0.49;74.64;101152.56;20988875;28;20405;-69
2021/01/15 10:41:56;;;;;;;24.45;7.53;;;;;;;0.86;76.97;101151.59;20984718;28;20044;-68
2021/01/15 10:51:58;;;;;;;17.80;7.93;;;;;;;0.75;75.75;101157.66;20987908;28;20408;-69
2021/01/15 11:01:59;;;;;;;13.73;7.75;;;;;;;0.69;73.66;101163.69;20986912;28;20048;-69
2021/01/15 11:12:01;;;;;;;15.77;7.57;;;;;;;0.96;72.38;101178.22;20986661;28;20048;-70
2021/01/15 11:22:02;;;;;;;15.50;7.80;;;;;;;1.11;72.50;101172.16;20987600;28;20488;-69
2021/01/15 11:32:03;;;;;;;14.68;7.55;;;;;;;1.36;70.22;101178.09;20986535;28;20377;-70
2021/01/15 11:42:08;;;;;;;13.65;7.95;;;;;;;1.51;72.25;101178.88;20986797;28;20064;-71
2021/01/15 11:52:09;;;;;;;15.40;7.43;;;;;;;1.52;68.35;101179.72;20985380;28;20041;-71
2021/01/15 12:02:10;;;;;;;17.25;7.13;;;;;;;1.68;69.03;101156.41;20984777;28;20124;-71
2021/01/15 12:12:11;;;;;;;12.82;6.40;;;;;;;1.71;68.85;101146.09;20965916;28;20060;-71
2021/01/15 12:22:11;;;;;;;14.90;6.47;;;;;;;1.85;66.19;101153.72;20984125;28;20067;-70
2021/01/15 12:32:12;;;;;;;14.82;6.53;;;;;;;1.82;66.60;101165.81;20982596;28;20056;-71
2021/01/15 12:42:14;;;;;;;15.90;6.43;;;;;;;1.99;67.84;101162.22;20979577;28;20049;-70
2021/01/15 12:52:19;;;;;;;13.20;6.80;;;;;;;1.96;67.39;101162.25;20980458;28;20099;-70
2021/01/15 13:02:20;;;;;;;11.43;6.50;;;;;;;2.02;66.91;101161.38;20979735;28;20053;-71
2021/01/15 13:12:21;;;;;;;11.45;5.93;;;;;;;1.90;67.61;101164.88;20979351;28;20389;-70
2021/01/15 13:22:22;;;;;;;10.85;6.15;;;;;;;1.91;66.63;101165.75;20981338;28;20052;-70
2021/01/15 13:32:23;;;;;;;12.10;6.38;;;;;;;1.95;66.52;101182.91;20981148;28;20052;-70
2021/01/15 13:42:25;;;;;;;16.23;8.50;;;;;;;1.93;68.11;101188.06;20978548;28;20059;-71
2021/01/15 13:52:26;;;;;;;15.32;7.32;;;;;;;1.84;68.54;101195.03;20988804;28;20044;-69
2021/01/15 14:02:27;;;;;;;20.52;9.18;;;;;;;1.86;67.88;101211.38;20993691;28;20048;-70
2021/01/15 14:12:30;;;;;;;17.02;9.05;;;;;;;1.97;68.62;101227.66;20994430;28;20045;-70
2021/01/15 14:22:31;;;;;;;20.88;9.07;;;;;;;1.97;69.95;101244.00;20989301;28;20067;-71
2021/01/15 14:32:32;;;;;;;20.05;10.68;;;;;;;1.71;70.56;101254.47;20991613;28;20045;-70
2021/01/15 14:42:33;;;;;;;21.58;10.05;;;;;;;1.52;70.23;101268.31;20991628;28;20079;-69
2021/01/15 14:52:34;;;;;;;19.38;9.60;;;;;;;1.39;70.99;101279.50;20990861;28;20048;-69
2021/01/15 15:02:42;;;;;;;20.98;9.48;;;;;;;1.19;71.63;101299.31;20989275;28;20565;-70
2021/01/15 15:12:54;;;;;;;20.33;9.60;;;;;;;1.09;72.23;101313.09;20988912;28;20060;-69
2021/01/15 15:22:58;;;;;;;21.25;10.13;;;;;;;1.00;73.64;101323.41;20989974;28;20044;-68
2021/01/15 15:32:59;;;;;;;22.13;10.20;;;;;;;0.81;75.35;101331.13;20988516;28;20629;-68
2021/01/15 15:43:00;;;;;;;24.15;11.38;;;;;;;0.59;78.75;101347.44;20986791;28;20471;-69
2021/01/15 15:53:02;;;;;;;24.00;10.77;;;;;;;0.56;79.92;101347.41;20986038;28;20055;-69
2021/01/15 16:03:06;;;;;;;28.73;12.63;;;;;;;0.39;82.33;101355.13;20984675;28;20037;-69
2021/01/15 16:13:07;;;;;;;28.17;13.80;;;;;;;0.41;83.99;101388.56;20983607;28;20044;-70
2021/01/15 16:23:08;;;;;;;34.58;15.55;;;;;;;0.32;85.63;101397.16;20984155;28;20044;-70
2021/01/15 16:33:17;;;;;;;28.80;13.90;;;;;;;0.32;87.57;101415.16;20982536;28;20053;-70
2021/01/15 16:43:18;;;;;;;70.47;34.85;;;;;;;0.26;87.77;101419.41;20964880;28;20520;-70
2021/01/15 16:53:19;;;;;;;30.80;13.90;;;;;;;0.38;87.52;101419.47;20982654;28;20080;-69
2021/01/15 17:03:20;;;;;;;44.13;21.80;;;;;;;0.40;88.62;101418.66;20981348;28;20559;-71
2021/01/15 17:13:21;;;;;;;46.22;22.00;;;;;;;0.46;87.69;101442.69;20981745;28;20488;-69
2021/01/15 17:23:22;;;;;;;45.90;21.70;;;;;;;0.36;89.43;101452.94;20985395;28;20439;-69
2021/01/15 17:33:23;;;;;;;36.15;16.90;;;;;;;0.36;89.67;101470.09;20995471;28;20411;-69
2021/01/15 17:43:24;;;;;;;37.55;16.27;;;;;;;0.37;89.38;101470.13;20995254;28;20052;-69
2021/01/15 17:53:25;;;;;;;39.35;18.25;;;;;;;0.33;90.42;101473.53;20987109;28;20053;-70
2021/01/15 18:03:26;;;;;;;46.75;21.77;;;;;;;0.38;89.87;101482.16;20984589;28;20120;-70
2021/01/15 18:13:27;;;;;;;34.97;15.25;;;;;;;0.37;90.59;101487.28;20993466;28;20053;-70
2021/01/15 18:23:28;;;;;;;41.70;19.92;;;;;;;0.38;91.09;101484.72;20987198;28;20048;-71
2021/01/15 18:33:32;;;;;;;31.23;14.60;;;;;;;0.32;91.34;101492.41;20978744;28;20056;-71
2021/01/15 18:43:32;;;;;;;26.27;13.25;;;;;;;0.33;90.51;101508.72;20991348;28;20079;-71
2021/01/15 18:53:34;;;;;;;28.75;15.02;;;;;;;0.36;90.63;101504.44;20989738;28;20196;-71
2021/01/15 19:03:34;;;;;;;43.10;22.17;;;;;;;0.35;89.90;101507.88;20981075;28;20393;-71
2021/01/15 19:13:35;;;;;;;35.90;18.60;;;;;;;0.32;90.53;101528.47;20980262;28;20393;-70
2021/01/15 19:23:36;;;;;;;31.48;14.45;;;;;;;0.36;89.22;101519.03;20987504;28;20500;-70
2021/01/15 19:33:37;;;;;;;29.75;14.13;;;;;;;0.40;88.55;101521.66;20981834;28;20041;-70
2021/01/15 19:43:39;;;;;;;31.88;16.83;;;;;;;0.35;90.24;101522.47;20959073;28;20049;-70
2021/01/15 19:53:40;;;;;;;30.65;15.10;;;;;;;0.33;90.34;101519.03;20984800;28;20052;-70
2021/01/15 20:03:42;;;;;;;32.55;16.40;;;;;;;0.28;90.98;101543.88;20984668;28;20120;-69
2021/01/15 20:13:43;;;;;;;26.30;13.40;;;;;;;0.07;93.50;101542.03;20970501;28;20048;-69
2021/01/15 20:23:45;;;;;;;27.90;13.38;;;;;;;0.06;94.88;101537.72;20971670;28;20500;-69
2021/01/15 20:33:47;;;;;;;28.90;14.23;;;;;;;-0.01;93.70;101544.56;20979210;28;20127;-69
2021/01/15 20:43:49;;;;;;;21.45;11.40;;;;;;;-0.07;95.51;101553.94;20981410;28;20397;-69
2021/01/15 20:53:51;;;;;;;23.15;11.98;;;;;;;-0.07;94.04;101553.94;20972142;28;20036;-71
2021/01/15 21:03:52;;;;;;;27.40;13.38;;;;;;;-0.03;93.20;101561.69;20985666;28;20044;-70
2021/01/15 21:14:08;;;;;;;23.03;11.67;;;;;;;-0.10;94.44;101570.19;20997399;28;20454;-70
2021/01/15 21:24:16;;;;;;;28.23;14.20;;;;;;;-0.15;95.71;101569.31;20990426;28;20099;-70
2021/01/15 21:34:21;;;;;;;88.75;42.40;;;;;;;-0.13;95.01;101574.47;20986613;28;20047;-70
2021/01/15 21:44:24;;;;;;;45.60;23.00;;;;;;;-0.16;94.46;101580.47;20991177;28;20087;-70
2021/01/15 21:54:28;;;;;;;33.67;15.75;;;;;;;-0.11;93.49;101578.78;20994915;28;20484;-71
2021/01/15 22:04:29;;;;;;;27.67;14.27;;;;;;;-0.10;93.72;101584.78;20984537;28;20147;-70
2021/01/15 22:14:30;;;;;;;31.38;15.95;;;;;;;-0.23;96.54;101588.09;20985111;28;20056;-70
2021/01/15 22:24:31;;;;;;;28.45;13.52;;;;;;;-0.20;94.45;101585.53;20993290;28;20486;-70
2021/01/15 22:34:32;;;;;;;67.28;22.90;;;;;;;-0.25;95.84;101595.81;20986944;28;20045;-71
2021/01/15 22:44:33;;;;;;;30.70;13.05;;;;;;;-0.16;95.52;101595.91;20981576;28;20459;-70
2021/01/15 22:54:34;;;;;;;26.92;12.10;;;;;;;-0.29;97.10;101596.63;20990870;28;20049;-70
2021/01/15 23:04:35;;;;;;;25.75;12.07;;;;;;;-0.20;95.54;101590.69;20984470;28;20043;-70
2021/01/15 23:14:36;;;;;;;27.05;13.40;;;;;;;-0.15;94.35;101596.75;20982095;28;20048;-71
2021/01/15 23:24:37;;;;;;;28.23;13.70;;;;;;;-0.10;93.85;101587.34;20977334;28;20055;-73
2021/01/15 23:34:38;;;;;;;33.20;15.77;;;;;;;-0.18;93.46;101586.44;20979770;28;20063;-73
2021/01/15 23:44:39;;;;;;;27.42;13.27;;;;;;;-0.17;94.48;101589.03;20979989;28;20173;-73
2021/01/15 23:54:40;;;;;;;25.98;12.77;;;;;;;-0.30;96.04;101581.16;20982166;28;20048;-73
